sensor_id;sensor_type;location;lat;lon;timestamp;P1;durP1;ratioP1;P2;durP2;ratioP2
41829;SDS011;38614;43.472;23.936;2023-08-06T00:02:39;0.30;;;0.08;;
41829;SDS011;38614;43.472;23.936;2023-08-06T00:05:27;0.60;;;0.10;;
41829;SDS011;38614;43.472;23.936;2023-08-06T00:08:15;0.10;;;0.10;;
41829;SDS011;38614;43.472;23.936;2023-08-06T00:11:02;0.93;;;0.10;;
41829;SDS011;38614;43.472;23.936;2023-08-06T00:13:50;0.10;;;0.05;;
41829;SDS011;38614;43.472;23.936;2023-08-06T00:16:38;0.35;;;0.00;;
41829;SDS011;38614;43.472;23.936;2023-08-06T00:19:26;0.20;;;0.00;;
41829;SDS011;38614;43.472;23.936;2023-08-06T00:22:14;1.48;;;0.03;;
41829;SDS011;38614;43.472;23.936;2023-08-06T00:25:02;0.15;;;0.10;;
41829;SDS011;38614;43.472;23.936;2023-08-06T00:27:51;0.10;;;0.00;;
41829;SDS011;38614;43.472;23.936;2023-08-06T00:30:39;0.10;;;0.00;;
41829;SDS011;38614;43.472;23.936;2023-08-06T00:33:27;0.17;;;0.00;;
41829;SDS011;38614;43.472;23.936;2023-08-06T00:36:15;2.30;;;0.10;;
41829;SDS011;38614;43.472;23.936;2023-08-06T00:39:03;2.28;;;0.30;;
41829;SDS011;38614;43.472;23.936;2023-08-06T00:41:51;0.68;;;0.15;;
41829;SDS011;38614;43.472;23.936;2023-08-06T00:44:41;3.50;;;0.47;;
41829;SDS011;38614;43.472;23.936;2023-08-06T00:47:29;0.65;;;0.20;;
41829;SDS011;38614;43.472;23.936;2023-08-06T00:50:17;2.38;;;0.30;;
41829;SDS011;38614;43.472;23.936;2023-08-06T00:53:08;0.10;;;0.00;;
41829;SDS011;38614;43.472;23.936;2023-08-06T00:55:57;0.70;;;0.05;;
41829;SDS011;38614;43.472;23.936;2023-08-06T00:58:46;0.30;;;0.00;;
41829;SDS011;38614;43.472;23.936;2023-08-06T01:01:34;4.95;;;0.52;;
41829;SDS011;38614;43.472;23.936;2023-08-06T01:04:22;4.07;;;0.20;;
41829;SDS011;38614;43.472;23.936;2023-08-06T01:07:33;0.30;;;0.00;;
41829;SDS011;38614;43.472;23.936;2023-08-06T01:10:21;0.65;;;0.43;;
41829;SDS011;38614;43.472;23.936;2023-08-06T01:16:30;0.50;;;0.13;;
41829;SDS011;38614;43.472;23.936;2023-08-06T01:19:19;0.60;;;0.22;;
41829;SDS011;38614;43.472;23.936;2023-08-06T01:22:07;0.60;;;0.30;;
41829;SDS011;38614;43.472;23.936;2023-08-06T01:24:55;0.45;;;0.30;;
41829;SDS011;38614;43.472;23.936;2023-08-06T01:27:49;1.08;;;0.20;;
41829;SDS011;38614;43.472;23.936;2023-08-06T01:30:38;0.65;;;0.20;;
41829;SDS011;38614;43.472;23.936;2023-08-06T01:33:30;1.60;;;0.30;;
41829;SDS011;38614;43.472;23.936;2023-08-06T01:36:20;3.20;;;0.30;;
41829;SDS011;38614;43.472;23.936;2023-08-06T01:39:09;1.80;;;0.28;;
41829;SDS011;38614;43.472;23.936;2023-08-06T01:41:57;0.85;;;0.30;;
41829;SDS011;38614;43.472;23.936;2023-08-06T01:44:45;2.42;;;0.10;;
41829;SDS011;38614;43.472;23.936;2023-08-06T01:47:33;1.00;;;0.50;;
41829;SDS011;38614;43.472;23.936;2023-08-06T01:50:21;0.85;;;0.20;;
41829;SDS011;38614;43.472;23.936;2023-08-06T01:53:09;0.77;;;0.10;;
41829;SDS011;38614;43.472;23.936;2023-08-06T01:55:56;1.08;;;0.13;;
41829;SDS011;38614;43.472;23.936;2023-08-06T01:58:44;1.13;;;0.32;;
41829;SDS011;38614;43.472;23.936;2023-08-06T02:01:32;0.70;;;0.00;;
41829;SDS011;38614;43.472;23.936;2023-08-06T02:04:20;0.35;;;0.10;;
41829;SDS011;38614;43.472;23.936;2023-08-06T02:07:08;0.93;;;0.10;;
41829;SDS011;38614;43.472;23.936;2023-08-06T02:09:56;0.20;;;0.10;;
41829;SDS011;38614;43.472;23.936;2023-08-06T02:12:44;0.70;;;0.10;;
41829;SDS011;38614;43.472;23.936;2023-08-06T02:15:32;0.15;;;0.10;;
41829;SDS011;38614;43.472;23.936;2023-08-06T02:18:20;0.22;;;0.22;;
41829;SDS011;38614;43.472;23.936;2023-08-06T02:21:08;3.53;;;0.28;;
41829;SDS011;38614;43.472;23.936;2023-08-06T02:23:55;0.28;;;0.05;;
41829;SDS011;38614;43.472;23.936;2023-08-06T02:26:43;0.88;;;0.40;;
41829;SDS011;38614;43.472;23.936;2023-08-06T02:29:32;0.20;;;0.10;;
41829;SDS011;38614;43.472;23.936;2023-08-06T02:32:20;2.15;;;0.50;;
41829;SDS011;38614;43.472;23.936;2023-08-06T02:35:07;0.20;;;0.10;;
41829;SDS011;38614;43.472;23.936;2023-08-06T02:37:55;1.95;;;0.65;;
41829;SDS011;38614;43.472;23.936;2023-08-06T02:40:44;0.47;;;0.10;;
41829;SDS011;38614;43.472;23.936;2023-08-06T02:43:35;1.38;;;0.20;;
41829;SDS011;38614;43.472;23.936;2023-08-06T02:46:24;0.28;;;0.20;;
41829;SDS011;38614;43.472;23.936;2023-08-06T02:49:12;0.50;;;0.20;;
41829;SDS011;38614;43.472;23.936;2023-08-06T02:52:00;2.97;;;0.10;;
41829;SDS011;38614;43.472;23.936;2023-08-06T02:54:48;3.70;;;0.28;;
41829;SDS011;38614;43.472;23.936;2023-08-06T02:57:36;0.32;;;0.25;;
41829;SDS011;38614;43.472;23.936;2023-08-06T03:00:24;0.50;;;0.25;;
41829;SDS011;38614;43.472;23.936;2023-08-06T03:03:12;0.55;;;0.25;;
41829;SDS011;38614;43.472;23.936;2023-08-06T03:06:06;4.95;;;0.35;;
41829;SDS011;38614;43.472;23.936;2023-08-06T03:09:02;2.50;;;0.30;;
41829;SDS011;38614;43.472;23.936;2023-08-06T03:11:50;0.60;;;0.30;;
41829;SDS011;38614;43.472;23.936;2023-08-06T03:14:39;2.45;;;0.30;;
41829;SDS011;38614;43.472;23.936;2023-08-06T03:17:28;0.40;;;0.10;;
41829;SDS011;38614;43.472;23.936;2023-08-06T03:20:16;1.27;;;0.57;;
41829;SDS011;38614;43.472;23.936;2023-08-06T03:23:04;1.42;;;0.30;;
41829;SDS011;38614;43.472;23.936;2023-08-06T03:25:53;1.52;;;0.20;;
41829;SDS011;38614;43.472;23.936;2023-08-06T03:28:41;0.20;;;0.20;;
41829;SDS011;38614;43.472;23.936;2023-08-06T03:31:30;3.33;;;0.28;;
41829;SDS011;38614;43.472;23.936;2023-08-06T03:34:19;0.25;;;0.10;;
41829;SDS011;38614;43.472;23.936;2023-08-06T03:37:08;11.93;;;1.13;;
41829;SDS011;38614;43.472;23.936;2023-08-06T03:39:56;0.30;;;0.25;;
41829;SDS011;38614;43.472;23.936;2023-08-06T03:42:44;0.60;;;0.10;;
41829;SDS011;38614;43.472;23.936;2023-08-06T03:45:32;0.80;;;0.32;;
41829;SDS011;38614;43.472;23.936;2023-08-06T03:48:20;0.40;;;0.10;;
41829;SDS011;38614;43.472;23.936;2023-08-06T03:51:08;0.40;;;0.10;;
41829;SDS011;38614;43.472;23.936;2023-08-06T03:53:58;0.22;;;0.10;;
41829;SDS011;38614;43.472;23.936;2023-08-06T03:56:46;0.57;;;0.30;;
41829;SDS011;38614;43.472;23.936;2023-08-06T03:59:36;2.05;;;0.28;;
41829;SDS011;38614;43.472;23.936;2023-08-06T04:02:24;2.17;;;0.30;;
41829;SDS011;38614;43.472;23.936;2023-08-06T04:05:13;2.15;;;0.43;;
41829;SDS011;38614;43.472;23.936;2023-08-06T04:08:00;1.92;;;0.13;;
41829;SDS011;38614;43.472;23.936;2023-08-06T04:10:52;0.90;;;0.30;;
41829;SDS011;38614;43.472;23.936;2023-08-06T04:13:43;1.45;;;0.38;;
41829;SDS011;38614;43.472;23.936;2023-08-06T04:16:31;1.05;;;0.08;;
41829;SDS011;38614;43.472;23.936;2023-08-06T04:19:19;0.73;;;0.10;;
41829;SDS011;38614;43.472;23.936;2023-08-06T04:22:07;1.42;;;0.25;;
41829;SDS011;38614;43.472;23.936;2023-08-06T04:24:55;8.45;;;1.35;;
41829;SDS011;38614;43.472;23.936;2023-08-06T04:27:43;11.32;;;0.90;;
41829;SDS011;38614;43.472;23.936;2023-08-06T04:30:30;6.18;;;0.47;;
41829;SDS011;38614;43.472;23.936;2023-08-06T04:33:19;3.75;;;0.88;;
41829;SDS011;38614;43.472;23.936;2023-08-06T04:36:07;1.58;;;0.32;;
41829;SDS011;38614;43.472;23.936;2023-08-06T04:38:55;4.63;;;0.57;;
41829;SDS011;38614;43.472;23.936;2023-08-06T04:41:43;2.60;;;0.40;;
41829;SDS011;38614;43.472;23.936;2023-08-06T04:44:31;2.47;;;0.40;;
41829;SDS011;38614;43.472;23.936;2023-08-06T04:47:19;3.03;;;0.47;;
41829;SDS011;38614;43.472;23.936;2023-08-06T04:50:07;3.72;;;0.40;;
41829;SDS011;38614;43.472;23.936;2023-08-06T04:52:55;1.23;;;0.20;;
41829;SDS011;38614;43.472;23.936;2023-08-06T04:55:43;1.80;;;0.25;;
41829;SDS011;38614;43.472;23.936;2023-08-06T04:58:32;3.25;;;0.55;;
41829;SDS011;38614;43.472;23.936;2023-08-06T05:01:20;2.72;;;0.63;;
41829;SDS011;38614;43.472;23.936;2023-08-06T05:04:08;1.00;;;0.40;;
41829;SDS011;38614;43.472;23.936;2023-08-06T05:06:56;0.75;;;0.28;;
41829;SDS011;38614;43.472;23.936;2023-08-06T05:09:44;1.85;;;0.50;;
41829;SDS011;38614;43.472;23.936;2023-08-06T05:12:31;1.10;;;0.22;;
41829;SDS011;38614;43.472;23.936;2023-08-06T05:15:19;1.52;;;0.20;;
41829;SDS011;38614;43.472;23.936;2023-08-06T05:18:08;0.63;;;0.30;;
41829;SDS011;38614;43.472;23.936;2023-08-06T05:20:57;5.57;;;1.00;;
41829;SDS011;38614;43.472;23.936;2023-08-06T05:23:45;0.50;;;0.30;;
41829;SDS011;38614;43.472;23.936;2023-08-06T05:26:35;4.35;;;1.05;;
41829;SDS011;38614;43.472;23.936;2023-08-06T05:29:23;7.70;;;0.70;;
41829;SDS011;38614;43.472;23.936;2023-08-06T05:32:14;3.47;;;0.25;;
41829;SDS011;38614;43.472;23.936;2023-08-06T05:35:03;6.20;;;0.30;;
41829;SDS011;38614;43.472;23.936;2023-08-06T05:37:52;0.40;;;0.32;;
41829;SDS011;38614;43.472;23.936;2023-08-06T05:40:40;5.47;;;0.20;;
41829;SDS011;38614;43.472;23.936;2023-08-06T05:43:28;1.02;;;0.40;;
41829;SDS011;38614;43.472;23.936;2023-08-06T05:46:16;0.55;;;0.50;;
41829;SDS011;38614;43.472;23.936;2023-08-06T05:49:04;0.63;;;0.32;;
41829;SDS011;38614;43.472;23.936;2023-08-06T05:51:52;0.30;;;0.20;;
41829;SDS011;38614;43.472;23.936;2023-08-06T05:54:43;1.27;;;0.73;;
41829;SDS011;38614;43.472;23.936;2023-08-06T05:57:31;0.82;;;0.22;;
41829;SDS011;38614;43.472;23.936;2023-08-06T06:00:19;1.27;;;0.50;;
41829;SDS011;38614;43.472;23.936;2023-08-06T06:03:08;2.88;;;0.38;;
41829;SDS011;38614;43.472;23.936;2023-08-06T06:05:56;2.95;;;0.40;;
41829;SDS011;38614;43.472;23.936;2023-08-06T06:08:45;4.15;;;0.43;;
41829;SDS011;38614;43.472;23.936;2023-08-06T06:11:32;1.85;;;0.82;;
41829;SDS011;38614;43.472;23.936;2023-08-06T06:14:20;1.58;;;0.65;;
41829;SDS011;38614;43.472;23.936;2023-08-06T06:17:08;2.28;;;0.65;;
41829;SDS011;38614;43.472;23.936;2023-08-06T06:19:56;5.90;;;0.75;;
41829;SDS011;38614;43.472;23.936;2023-08-06T06:22:46;2.08;;;0.80;;
41829;SDS011;38614;43.472;23.936;2023-08-06T06:25:34;0.50;;;0.40;;
41829;SDS011;38614;43.472;23.936;2023-08-06T06:28:22;1.95;;;0.40;;
41829;SDS011;38614;43.472;23.936;2023-08-06T06:31:10;3.78;;;0.57;;
41829;SDS011;38614;43.472;23.936;2023-08-06T06:33:58;0.80;;;0.38;;
41829;SDS011;38614;43.472;23.936;2023-08-06T06:36:46;1.35;;;0.77;;
41829;SDS011;38614;43.472;23.936;2023-08-06T06:39:34;1.35;;;0.70;;
41829;SDS011;38614;43.472;23.936;2023-08-06T06:42:24;5.75;;;0.85;;
41829;SDS011;38614;43.472;23.936;2023-08-06T06:45:18;0.68;;;0.50;;
41829;SDS011;38614;43.472;23.936;2023-08-06T06:48:06;3.90;;;0.75;;
41829;SDS011;38614;43.472;23.936;2023-08-06T06:50:54;3.40;;;0.30;;
41829;SDS011;38614;43.472;23.936;2023-08-06T06:53:45;0.52;;;0.25;;
41829;SDS011;38614;43.472;23.936;2023-08-06T06:56:35;1.65;;;0.65;;
41829;SDS011;38614;43.472;23.936;2023-08-06T06:59:24;0.60;;;0.30;;
41829;SDS011;38614;43.472;23.936;2023-08-06T07:02:11;0.30;;;0.30;;
41829;SDS011;38614;43.472;23.936;2023-08-06T07:04:59;0.40;;;0.20;;
41829;SDS011;38614;43.472;23.936;2023-08-06T07:07:47;1.85;;;0.55;;
41829;SDS011;38614;43.472;23.936;2023-08-06T07:10:35;1.20;;;0.30;;
41829;SDS011;38614;43.472;23.936;2023-08-06T07:13:23;0.93;;;0.43;;
41829;SDS011;38614;43.472;23.936;2023-08-06T07:16:11;1.38;;;0.60;;
41829;SDS011;38614;43.472;23.936;2023-08-06T07:18:59;3.38;;;0.50;;
41829;SDS011;38614;43.472;23.936;2023-08-06T07:21:47;0.93;;;0.32;;
41829;SDS011;38614;43.472;23.936;2023-08-06T07:24:34;4.05;;;0.45;;
41829;SDS011;38614;43.472;23.936;2023-08-06T07:27:23;0.38;;;0.25;;
41829;SDS011;38614;43.472;23.936;2023-08-06T07:30:14;0.40;;;0.20;;
41829;SDS011;38614;43.472;23.936;2023-08-06T07:33:02;0.57;;;0.20;;
41829;SDS011;38614;43.472;23.936;2023-08-06T07:35:50;0.73;;;0.30;;
41829;SDS011;38614;43.472;23.936;2023-08-06T07:38:38;4.07;;;0.28;;
41829;SDS011;38614;43.472;23.936;2023-08-06T07:41:26;0.90;;;0.10;;
41829;SDS011;38614;43.472;23.936;2023-08-06T07:44:15;0.50;;;0.50;;
41829;SDS011;38614;43.472;23.936;2023-08-06T07:47:05;0.90;;;0.22;;
41829;SDS011;38614;43.472;23.936;2023-08-06T07:49:56;1.23;;;0.20;;
41829;SDS011;38614;43.472;23.936;2023-08-06T07:52:48;0.20;;;0.17;;
41829;SDS011;38614;43.472;23.936;2023-08-06T07:55:40;0.32;;;0.15;;
41829;SDS011;38614;43.472;23.936;2023-08-06T07:58:52;1.08;;;0.08;;
41829;SDS011;38614;43.472;23.936;2023-08-06T08:01:42;0.10;;;0.10;;
41829;SDS011;38614;43.472;23.936;2023-08-06T08:04:33;1.33;;;0.28;;
41829;SDS011;38614;43.472;23.936;2023-08-06T08:07:21;3.13;;;0.40;;
41829;SDS011;38614;43.472;23.936;2023-08-06T08:10:09;0.40;;;0.15;;
41829;SDS011;38614;43.472;23.936;2023-08-06T08:13:01;0.60;;;0.22;;
41829;SDS011;38614;43.472;23.936;2023-08-06T08:15:49;0.60;;;0.32;;
41829;SDS011;38614;43.472;23.936;2023-08-06T08:18:37;2.45;;;0.77;;
41829;SDS011;38614;43.472;23.936;2023-08-06T08:21:26;1.17;;;0.20;;
41829;SDS011;38614;43.472;23.936;2023-08-06T08:24:14;0.20;;;0.20;;
41829;SDS011;38614;43.472;23.936;2023-08-06T08:27:07;0.40;;;0.10;;
41829;SDS011;38614;43.472;23.936;2023-08-06T08:29:55;0.45;;;0.10;;
41829;SDS011;38614;43.472;23.936;2023-08-06T08:32:44;3.78;;;0.20;;
41829;SDS011;38614;43.472;23.936;2023-08-06T08:35:32;0.30;;;0.10;;
41829;SDS011;38614;43.472;23.936;2023-08-06T08:38:20;4.40;;;1.00;;
41829;SDS011;38614;43.472;23.936;2023-08-06T08:41:09;0.50;;;0.10;;
41829;SDS011;38614;43.472;23.936;2023-08-06T08:43:58;0.45;;;0.10;;
41829;SDS011;38614;43.472;23.936;2023-08-06T08:46:50;0.30;;;0.10;;
41829;SDS011;38614;43.472;23.936;2023-08-06T08:49:38;0.40;;;0.00;;
41829;SDS011;38614;43.472;23.936;2023-08-06T08:52:27;0.22;;;0.10;;
41829;SDS011;38614;43.472;23.936;2023-08-06T08:55:20;0.40;;;0.10;;
41829;SDS011;38614;43.472;23.936;2023-08-06T08:58:10;1.20;;;0.20;;
41829;SDS011;38614;43.472;23.936;2023-08-06T09:00:58;1.45;;;0.45;;
41829;SDS011;38614;43.472;23.936;2023-08-06T09:03:48;0.30;;;0.10;;
41829;SDS011;38614;43.472;23.936;2023-08-06T09:06:40;1.13;;;0.25;;
41829;SDS011;38614;43.472;23.936;2023-08-06T09:09:38;0.30;;;0.10;;
41829;SDS011;38614;43.472;23.936;2023-08-06T09:12:34;2.25;;;0.20;;
41829;SDS011;38614;43.472;23.936;2023-08-06T09:15:26;0.30;;;0.20;;
41829;SDS011;38614;43.472;23.936;2023-08-06T09:18:24;1.05;;;0.20;;
41829;SDS011;38614;43.472;23.936;2023-08-06T09:21:16;1.07;;;0.30;;
41829;SDS011;38614;43.472;23.936;2023-08-06T09:24:08;1.30;;;0.65;;
41829;SDS011;38614;43.472;23.936;2023-08-06T09:26:59;1.63;;;0.20;;
41829;SDS011;38614;43.472;23.936;2023-08-06T09:29:50;0.80;;;0.10;;
41829;SDS011;38614;43.472;23.936;2023-08-06T09:32:48;0.70;;;0.30;;
41829;SDS011;38614;43.472;23.936;2023-08-06T09:35:38;0.43;;;0.28;;
41829;SDS011;38614;43.472;23.936;2023-08-06T09:38:26;0.60;;;0.20;;
41829;SDS011;38614;43.472;23.936;2023-08-06T09:41:26;1.33;;;0.20;;
41829;SDS011;38614;43.472;23.936;2023-08-06T09:44:24;0.50;;;0.20;;
41829;SDS011;38614;43.472;23.936;2023-08-06T09:47:13;0.73;;;0.40;;
41829;SDS011;38614;43.472;23.936;2023-08-06T09:50:04;0.75;;;0.20;;
41829;SDS011;38614;43.472;23.936;2023-08-06T09:52:55;1.00;;;0.57;;
41829;SDS011;38614;43.472;23.936;2023-08-06T09:55:44;1.58;;;0.20;;
41829;SDS011;38614;43.472;23.936;2023-08-06T09:58:33;1.05;;;0.20;;
41829;SDS011;38614;43.472;23.936;2023-08-06T10:01:21;1.10;;;0.40;;
41829;SDS011;38614;43.472;23.936;2023-08-06T10:04:10;0.50;;;0.28;;
41829;SDS011;38614;43.472;23.936;2023-08-06T10:07:09;1.95;;;0.28;;
41829;SDS011;38614;43.472;23.936;2023-08-06T10:10:02;1.95;;;0.10;;
41829;SDS011;38614;43.472;23.936;2023-08-06T10:13:24;0.38;;;0.20;;
41829;SDS011;38614;43.472;23.936;2023-08-06T10:16:12;0.20;;;0.10;;
41829;SDS011;38614;43.472;23.936;2023-08-06T10:19:01;1.38;;;0.47;;
41829;SDS011;38614;43.472;23.936;2023-08-06T10:25:01;3.70;;;0.22;;
41829;SDS011;38614;43.472;23.936;2023-08-06T10:27:53;0.30;;;0.10;;
41829;SDS011;38614;43.472;23.936;2023-08-06T10:30:42;0.73;;;0.47;;
41829;SDS011;38614;43.472;23.936;2023-08-06T10:33:42;0.93;;;0.10;;
41829;SDS011;38614;43.472;23.936;2023-08-06T10:36:34;0.20;;;0.10;;
41829;SDS011;38614;43.472;23.936;2023-08-06T10:39:22;3.92;;;0.55;;
41829;SDS011;38614;43.472;23.936;2023-08-06T10:42:20;0.60;;;0.20;;
41829;SDS011;38614;43.472;23.936;2023-08-06T10:45:16;4.18;;;0.20;;
41829;SDS011;38614;43.472;23.936;2023-08-06T10:48:06;0.30;;;0.10;;
41829;SDS011;38614;43.472;23.936;2023-08-06T10:50:54;0.20;;;0.10;;
41829;SDS011;38614;43.472;23.936;2023-08-06T10:53:43;0.65;;;0.20;;
41829;SDS011;38614;43.472;23.936;2023-08-06T10:56:39;0.20;;;0.10;;
41829;SDS011;38614;43.472;23.936;2023-08-06T10:59:29;0.38;;;0.15;;
41829;SDS011;38614;43.472;23.936;2023-08-06T11:02:17;1.75;;;0.20;;
41829;SDS011;38614;43.472;23.936;2023-08-06T11:05:06;2.58;;;0.00;;
41829;SDS011;38614;43.472;23.936;2023-08-06T11:07:54;0.80;;;0.10;;
41829;SDS011;38614;43.472;23.936;2023-08-06T11:10:42;0.30;;;0.10;;
41829;SDS011;38614;43.472;23.936;2023-08-06T11:13:40;1.25;;;0.40;;
41829;SDS011;38614;43.472;23.936;2023-08-06T11:16:30;0.20;;;0.03;;
41829;SDS011;38614;43.472;23.936;2023-08-06T11:19:17;3.42;;;0.00;;
41829;SDS011;38614;43.472;23.936;2023-08-06T11:22:08;1.65;;;0.10;;
41829;SDS011;38614;43.472;23.936;2023-08-06T11:24:56;0.10;;;0.00;;
41829;SDS011;38614;43.472;23.936;2023-08-06T11:27:44;0.30;;;0.10;;
41829;SDS011;38614;43.472;23.936;2023-08-06T11:30:37;9.43;;;0.00;;
41829;SDS011;38614;43.472;23.936;2023-08-06T11:33:26;0.10;;;0.00;;
41829;SDS011;38614;43.472;23.936;2023-08-06T11:36:14;0.00;;;0.00;;
41829;SDS011;38614;43.472;23.936;2023-08-06T11:39:03;0.13;;;0.00;;
41829;SDS011;38614;43.472;23.936;2023-08-06T11:41:53;0.03;;;0.00;;
41829;SDS011;38614;43.472;23.936;2023-08-06T11:44:41;0.10;;;0.00;;
41829;SDS011;38614;43.472;23.936;2023-08-06T11:47:32;0.50;;;0.10;;
41829;SDS011;38614;43.472;23.936;2023-08-06T11:50:24;0.55;;;0.10;;
41829;SDS011;38614;43.472;23.936;2023-08-06T11:53:15;0.35;;;0.00;;
41829;SDS011;38614;43.472;23.936;2023-08-06T11:56:03;7.68;;;0.68;;
41829;SDS011;38614;43.472;23.936;2023-08-06T11:58:51;0.20;;;0.10;;
41829;SDS011;38614;43.472;23.936;2023-08-06T12:01:39;0.05;;;0.00;;
41829;SDS011;38614;43.472;23.936;2023-08-06T12:04:27;0.20;;;0.10;;
41829;SDS011;38614;43.472;23.936;2023-08-06T12:07:15;0.20;;;0.05;;
41829;SDS011;38614;43.472;23.936;2023-08-06T12:10:06;0.00;;;0.00;;
41829;SDS011;38614;43.472;23.936;2023-08-06T12:12:55;1.17;;;0.00;;
41829;SDS011;38614;43.472;23.936;2023-08-06T12:15:44;0.95;;;0.10;;
41829;SDS011;38614;43.472;23.936;2023-08-06T12:18:32;0.30;;;0.20;;
41829;SDS011;38614;43.472;23.936;2023-08-06T12:21:20;0.43;;;0.20;;
41829;SDS011;38614;43.472;23.936;2023-08-06T12:24:08;0.85;;;0.28;;
41829;SDS011;38614;43.472;23.936;2023-08-06T12:26:57;1.02;;;0.20;;
41829;SDS011;38614;43.472;23.936;2023-08-06T12:29:47;6.35;;;0.10;;
41829;SDS011;38614;43.472;23.936;2023-08-06T12:32:38;0.38;;;0.10;;
41829;SDS011;38614;43.472;23.936;2023-08-06T12:35:28;0.68;;;0.10;;
41829;SDS011;38614;43.472;23.936;2023-08-06T12:38:16;0.50;;;0.28;;
41829;SDS011;38614;43.472;23.936;2023-08-06T12:41:04;0.10;;;0.00;;
41829;SDS011;38614;43.472;23.936;2023-08-06T12:43:52;1.55;;;0.10;;
41829;SDS011;38614;43.472;23.936;2023-08-06T12:46:40;0.40;;;0.10;;
41829;SDS011;38614;43.472;23.936;2023-08-06T12:49:28;20.13;;;0.63;;
41829;SDS011;38614;43.472;23.936;2023-08-06T12:52:20;1.15;;;0.35;;
41829;SDS011;38614;43.472;23.936;2023-08-06T12:55:08;0.40;;;0.20;;
41829;SDS011;38614;43.472;23.936;2023-08-06T12:57:55;0.10;;;0.00;;
41829;SDS011;38614;43.472;23.936;2023-08-06T13:00:45;0.20;;;0.10;;
41829;SDS011;38614;43.472;23.936;2023-08-06T13:03:33;1.02;;;0.15;;
41829;SDS011;38614;43.472;23.936;2023-08-06T13:06:21;0.80;;;0.28;;
41829;SDS011;38614;43.472;23.936;2023-08-06T13:09:09;0.40;;;0.30;;
41829;SDS011;38614;43.472;23.936;2023-08-06T13:11:57;1.80;;;0.10;;
41829;SDS011;38614;43.472;23.936;2023-08-06T13:14:49;0.80;;;0.20;;
41829;SDS011;38614;43.472;23.936;2023-08-06T13:17:40;0.50;;;0.08;;
41829;SDS011;38614;43.472;23.936;2023-08-06T13:20:30;0.20;;;0.10;;
41829;SDS011;38614;43.472;23.936;2023-08-06T13:23:19;0.80;;;0.20;;
41829;SDS011;38614;43.472;23.936;2023-08-06T13:26:08;2.38;;;0.10;;
41829;SDS011;38614;43.472;23.936;2023-08-06T13:28:58;0.30;;;0.13;;
41829;SDS011;38614;43.472;23.936;2023-08-06T13:31:50;7.93;;;0.40;;
41829;SDS011;38614;43.472;23.936;2023-08-06T13:34:38;0.60;;;0.28;;
41829;SDS011;38614;43.472;23.936;2023-08-06T13:40:18;1.23;;;0.20;;
41829;SDS011;38614;43.472;23.936;2023-08-06T13:43:05;0.95;;;0.10;;
41829;SDS011;38614;43.472;23.936;2023-08-06T13:45:53;6.18;;;0.40;;
41829;SDS011;38614;43.472;23.936;2023-08-06T13:48:44;0.28;;;0.10;;
41829;SDS011;38614;43.472;23.936;2023-08-06T13:51:43;0.73;;;0.20;;
41829;SDS011;38614;43.472;23.936;2023-08-06T13:54:31;0.90;;;0.30;;
41829;SDS011;38614;43.472;23.936;2023-08-06T13:57:18;0.60;;;0.32;;
41829;SDS011;38614;43.472;23.936;2023-08-06T14:00:06;0.47;;;0.10;;
41829;SDS011;38614;43.472;23.936;2023-08-06T14:05:46;0.20;;;0.10;;
41829;SDS011;38614;43.472;23.936;2023-08-06T14:08:34;0.30;;;0.22;;
41829;SDS011;38614;43.472;23.936;2023-08-06T14:11:22;0.98;;;0.55;;
41829;SDS011;38614;43.472;23.936;2023-08-06T14:14:10;2.38;;;0.80;;
41829;SDS011;38614;43.472;23.936;2023-08-06T14:16:58;0.82;;;0.43;;
41829;SDS011;38614;43.472;23.936;2023-08-06T14:19:47;0.70;;;0.70;;
41829;SDS011;38614;43.472;23.936;2023-08-06T14:22:35;0.50;;;0.50;;
41829;SDS011;38614;43.472;23.936;2023-08-06T14:25:24;2.55;;;0.77;;
41829;SDS011;38614;43.472;23.936;2023-08-06T14:28:12;0.90;;;0.70;;
41829;SDS011;38614;43.472;23.936;2023-08-06T14:31:02;0.50;;;0.40;;
41829;SDS011;38614;43.472;23.936;2023-08-06T14:33:51;0.77;;;0.63;;
41829;SDS011;38614;43.472;23.936;2023-08-06T14:36:39;6.15;;;1.00;;
41829;SDS011;38614;43.472;23.936;2023-08-06T14:39:27;1.00;;;0.82;;
41829;SDS011;38614;43.472;23.936;2023-08-06T14:42:15;1.23;;;0.70;;
41829;SDS011;38614;43.472;23.936;2023-08-06T14:45:03;1.02;;;0.93;;
41829;SDS011;38614;43.472;23.936;2023-08-06T14:47:51;1.60;;;0.85;;
41829;SDS011;38614;43.472;23.936;2023-08-06T14:50:39;6.53;;;1.55;;
41829;SDS011;38614;43.472;23.936;2023-08-06T14:53:30;1.10;;;0.95;;
41829;SDS011;38614;43.472;23.936;2023-08-06T14:56:18;1.48;;;0.90;;
41829;SDS011;38614;43.472;23.936;2023-08-06T14:59:06;1.83;;;1.05;;
41829;SDS011;38614;43.472;23.936;2023-08-06T15:01:54;2.10;;;1.63;;
41829;SDS011;38614;43.472;23.936;2023-08-06T15:04:42;1.05;;;0.93;;
41829;SDS011;38614;43.472;23.936;2023-08-06T15:07:30;1.70;;;1.27;;
41829;SDS011;38614;43.472;23.936;2023-08-06T15:10:23;2.67;;;1.38;;
41829;SDS011;38614;43.472;23.936;2023-08-06T15:13:13;2.70;;;1.33;;
41829;SDS011;38614;43.472;23.936;2023-08-06T15:16:03;1.40;;;1.30;;
41829;SDS011;38614;43.472;23.936;2023-08-06T15:18:52;2.63;;;1.27;;
41829;SDS011;38614;43.472;23.936;2023-08-06T15:21:40;1.98;;;1.13;;
41829;SDS011;38614;43.472;23.936;2023-08-06T15:24:29;1.35;;;1.25;;
41829;SDS011;38614;43.472;23.936;2023-08-06T15:27:17;2.28;;;1.10;;
41829;SDS011;38614;43.472;23.936;2023-08-06T15:30:06;4.18;;;1.20;;
41829;SDS011;38614;43.472;23.936;2023-08-06T15:32:54;2.15;;;1.63;;
41829;SDS011;38614;43.472;23.936;2023-08-06T15:35:43;2.63;;;1.75;;
41829;SDS011;38614;43.472;23.936;2023-08-06T15:38:31;1.38;;;1.27;;
41829;SDS011;38614;43.472;23.936;2023-08-06T15:41:19;1.80;;;1.67;;
41829;SDS011;38614;43.472;23.936;2023-08-06T15:44:07;6.72;;;1.60;;
41829;SDS011;38614;43.472;23.936;2023-08-06T15:46:54;1.90;;;1.58;;
41829;SDS011;38614;43.472;23.936;2023-08-06T15:49:43;2.78;;;1.40;;
41829;SDS011;38614;43.472;23.936;2023-08-06T15:52:31;3.35;;;2.10;;
41829;SDS011;38614;43.472;23.936;2023-08-06T15:55:19;1.83;;;1.52;;
41829;SDS011;38614;43.472;23.936;2023-08-06T15:58:07;1.45;;;1.33;;
41829;SDS011;38614;43.472;23.936;2023-08-06T16:00:55;1.40;;;1.30;;
41829;SDS011;38614;43.472;23.936;2023-08-06T16:03:43;1.83;;;1.23;;
41829;SDS011;38614;43.472;23.936;2023-08-06T16:06:32;1.95;;;1.42;;
41829;SDS011;38614;43.472;23.936;2023-08-06T16:09:21;1.75;;;1.40;;
41829;SDS011;38614;43.472;23.936;2023-08-06T16:12:12;2.67;;;1.30;;
41829;SDS011;38614;43.472;23.936;2023-08-06T16:15:02;3.60;;;1.38;;
41829;SDS011;38614;43.472;23.936;2023-08-06T16:17:50;1.27;;;1.17;;
41829;SDS011;38614;43.472;23.936;2023-08-06T16:20:42;1.50;;;1.40;;
41829;SDS011;38614;43.472;23.936;2023-08-06T16:23:30;1.45;;;1.35;;
41829;SDS011;38614;43.472;23.936;2023-08-06T16:26:18;5.00;;;1.73;;
41829;SDS011;38614;43.472;23.936;2023-08-06T16:29:06;4.18;;;1.25;;
41829;SDS011;38614;43.472;23.936;2023-08-06T16:31:54;1.52;;;1.42;;
41829;SDS011;38614;43.472;23.936;2023-08-06T16:34:42;2.20;;;1.92;;
41829;SDS011;38614;43.472;23.936;2023-08-06T16:37:32;8.25;;;1.67;;
41829;SDS011;38614;43.472;23.936;2023-08-06T16:40:20;1.83;;;1.52;;
41829;SDS011;38614;43.472;23.936;2023-08-06T16:43:08;1.63;;;0.95;;
41829;SDS011;38614;43.472;23.936;2023-08-06T16:45:56;4.20;;;1.67;;
41829;SDS011;38614;43.472;23.936;2023-08-06T16:48:45;2.53;;;1.83;;
41829;SDS011;38614;43.472;23.936;2023-08-06T16:51:34;3.33;;;1.65;;
41829;SDS011;38614;43.472;23.936;2023-08-06T16:54:22;8.02;;;2.13;;
41829;SDS011;38614;43.472;23.936;2023-08-06T16:57:09;6.80;;;2.15;;